createdAt,value
2019-03-18T00:00:23.860Z,99682.17
2019-03-18T00:02:55.263Z,99685.58
2019-03-18T00:05:26.618Z,99687.91
2019-03-18T00:07:58.291Z,99688.36
2019-03-18T00:10:29.742Z,99685.50
2019-03-18T00:13:01.061Z,99689.98
2019-03-18T00:15:32.457Z,99690.46
2019-03-18T00:18:03.776Z,99684.17
2019-03-18T00:20:35.047Z,99692.26
2019-03-18T00:23:06.482Z,99696.63
2019-03-18T00:25:37.827Z,99700.77
2019-03-18T00:28:09.115Z,99693.91
2019-03-18T00:30:40.434Z,99703.33
2019-03-18T00:33:11.748Z,99706.88
2019-03-18T00:35:43.065Z,99707.85
2019-03-18T00:38:14.465Z,99702.95
2019-03-18T00:40:45.648Z,99695.20
2019-03-18T00:43:16.989Z,99703.22
2019-03-18T00:45:48.326Z,99701.74
2019-03-18T00:48:19.727Z,99702.08
2019-03-18T00:50:51.692Z,99703.25
2019-03-18T00:53:22.307Z,99704.09
2019-03-18T00:55:53.831Z,99707.93
2019-03-18T00:58:25.232Z,99714.36
2019-03-18T01:00:56.542Z,99717.77
2019-03-18T01:03:27.945Z,99715.95
2019-03-18T01:06:00.482Z,99722.09
2019-03-18T01:08:31.819Z,99718.53
2019-03-18T01:11:03.193Z,99720.63
2019-03-18T01:13:34.621Z,99717.70
2019-03-18T01:16:05.886Z,99716.14
2019-03-18T01:18:37.304Z,99710.73
2019-03-18T01:21:08.737Z,99708.58
2019-03-18T01:23:40.073Z,99715.42
2019-03-18T01:26:11.470Z,99717.37
2019-03-18T01:28:42.805Z,99714.79
2019-03-18T01:31:14.003Z,99717.70
2019-03-18T01:33:45.275Z,99714.15
2019-03-18T01:36:16.609Z,99710.39
2019-03-18T01:38:47.915Z,99711.31
2019-03-18T01:41:19.219Z,99713.20
2019-03-18T01:43:50.583Z,99705.08
2019-03-18T01:46:21.864Z,99704.63
2019-03-18T01:48:54.174Z,99706.77
2019-03-18T01:51:25.888Z,99707.91
2019-03-18T01:53:57.295Z,99704.55
2019-03-18T01:56:28.652Z,99706.18
2019-03-18T01:59:00.047Z,99711.30
2019-03-18T02:01:31.387Z,99709.97
2019-03-18T02:04:03.282Z,99713.20
2019-03-18T02:06:34.555Z,99711.69
2019-03-18T02:09:06.996Z,99715.66
2019-03-18T02:11:38.312Z,99722.66
2019-03-18T02:14:10.133Z,99726.87
2019-03-18T02:16:41.466Z,99725.44
2019-03-18T02:19:12.956Z,99723.18
2019-03-18T02:21:44.322Z,99731.36
2019-03-18T02:24:15.544Z,99733.23
2019-03-18T02:26:46.904Z,99738.08
2019-03-18T02:29:18.222Z,99737.47
2019-03-18T02:31:49.598Z,99744.05
2019-03-18T02:34:20.912Z,99752.93
2019-03-18T02:36:52.324Z,99754.01
2019-03-18T02:39:23.673Z,99756.56
2019-03-18T02:41:55.040Z,99763.64
2019-03-18T02:44:26.434Z,99764.78
2019-03-18T02:46:58.517Z,99770.08
2019-03-18T02:49:29.756Z,99770.67
2019-03-18T02:52:01.169Z,99773.90
2019-03-18T02:54:32.486Z,99773.31
2019-03-18T02:57:03.888Z,99774.64
2019-03-18T02:59:35.108Z,99773.50
2019-03-18T03:02:06.470Z,99778.79
2019-03-18T03:04:37.789Z,99775.16
2019-03-18T03:07:09.217Z,99782.58
2019-03-18T03:09:40.547Z,99787.64
2019-03-18T03:12:11.851Z,99779.94
2019-03-18T03:14:44.156Z,99783.15
2019-03-18T03:17:15.502Z,99779.52
2019-03-18T03:19:46.844Z,99783.49
2019-03-18T03:22:18.224Z,99785.16
2019-03-18T03:24:49.490Z,99788.05
2019-03-18T03:27:20.803Z,99786.48
2019-03-18T03:29:52.131Z,99786.34
2019-03-18T03:32:24.542Z,99799.10
2019-03-18T03:34:55.969Z,99799.10
2019-03-18T03:37:27.191Z,99789.70
2019-03-18T03:39:59.441Z,99798.38
2019-03-18T03:42:30.687Z,99797.56
2019-03-18T03:45:02.032Z,99813.30
2019-03-18T03:47:33.392Z,99808.66
2019-03-18T03:50:06.771Z,99813.22
2019-03-18T03:52:38.026Z,99819.53
2019-03-18T03:55:10.836Z,99813.09
2019-03-18T03:57:42.161Z,99813.09
2019-03-18T04:00:15.213Z,99824.22
2019-03-18T04:02:46.591Z,99824.60
2019-03-18T04:05:17.977Z,99822.34
2019-03-18T04:07:49.289Z,99823.88
2019-03-18T04:10:20.648Z,99827.72
2019-03-18T04:12:52.088Z,99830.19
2019-03-18T04:15:23.467Z,99824.88
2019-03-18T04:17:54.715Z,99822.15
2019-03-18T04:20:26.182Z,99824.01
2019-03-18T04:22:57.476Z,99831.46
2019-03-18T04:25:30.022Z,99824.86
2019-03-18T04:28:01.317Z,99836.80
2019-03-18T04:30:33.167Z,99844.19
2019-03-18T04:33:04.582Z,99842.23
2019-03-18T04:35:35.839Z,99845.14
2019-03-18T04:38:07.317Z,99848.77
2019-03-18T04:40:38.579Z,99853.03
2019-03-18T04:43:09.849Z,99854.20
2019-03-18T04:45:42.193Z,99860.15
2019-03-18T04:48:13.650Z,99869.56
2019-03-18T04:50:45.062Z,99870.14
2019-03-18T04:53:16.439Z,99872.52
2019-03-18T04:55:47.731Z,99882.25
2019-03-18T04:58:19.071Z,99879.80
2019-03-18T05:00:50.480Z,99886.00
2019-03-18T05:03:23.089Z,99890.30
2019-03-18T05:05:54.363Z,99886.23
2019-03-18T05:08:25.735Z,99889.41
2019-03-18T05:10:57.141Z,99888.70
2019-03-18T05:13:28.946Z,99895.21
2019-03-18T05:16:00.284Z,99897.92
2019-03-18T05:18:31.477Z,99892.52
2019-03-18T05:21:02.895Z,99896.16
2019-03-18T05:23:34.130Z,99896.66
2019-03-18T05:26:05.450Z,99903.33
2019-03-18T05:28:36.806Z,99907.99
2019-03-18T05:31:08.166Z,99911.27
2019-03-18T05:33:39.512Z,99914.34
2019-03-18T05:36:10.877Z,99917.05
2019-03-18T05:38:42.345Z,99912.60
2019-03-18T05:41:14.729Z,99914.73
2019-03-18T05:43:46.158Z,99917.91
2019-03-18T05:46:17.479Z,99924.77
2019-03-18T05:48:48.795Z,99921.86
2019-03-18T05:51:20.143Z,99929.58
2019-03-18T05:53:51.593Z,99925.47
2019-03-18T05:56:22.786Z,99936.06
2019-03-18T05:58:53.925Z,99940.72
2019-03-18T06:01:25.311Z,99940.53
2019-03-18T06:03:56.507Z,99946.61
2019-03-18T06:06:27.972Z,99951.52
2019-03-18T06:08:59.313Z,99949.42
2019-03-18T06:11:30.701Z,99962.53
2019-03-18T06:14:02.036Z,99965.53
2019-03-18T06:16:33.417Z,99955.09
2019-03-18T06:19:04.655Z,99956.23
2019-03-18T06:21:36.022Z,99960.76
2019-03-18T06:24:07.442Z,99969.89
2019-03-18T06:26:38.866Z,99975.22
2019-03-18T06:29:10.163Z,99984.27
2019-03-18T06:31:41.564Z,99987.63
2019-03-18T06:34:12.962Z,99990.92
2019-03-18T06:36:44.291Z,99998.12
2019-03-18T06:39:15.626Z,99999.63
2019-03-18T06:41:46.951Z,99997.18
2019-03-18T06:44:18.247Z,99997.40
2019-03-18T06:46:49.598Z,99993.37
2019-03-18T06:49:21.362Z,99988.69
2019-03-18T06:51:52.779Z,100000.04
2019-03-18T06:54:24.187Z,99997.40
2019-03-18T06:56:55.502Z,100000.06
2019-03-18T06:59:26.873Z,99996.37
2019-03-18T07:01:58.683Z,100005.09
2019-03-18T07:04:30.024Z,100010.44
2019-03-18T07:07:01.368Z,99998.73
2019-03-18T07:09:32.760Z,100010.13
2019-03-18T07:12:04.162Z,100003.09
2019-03-18T07:14:35.483Z,100002.55
2019-03-18T07:17:06.729Z,100003.86
2019-03-18T07:19:38.135Z,99999.31
2019-03-18T07:22:09.475Z,100006.63
2019-03-18T07:24:40.629Z,100007.65
2019-03-18T07:27:12.002Z,100008.03
2019-03-18T07:29:43.476Z,100016.04
2019-03-18T07:32:14.765Z,100028.34
2019-03-18T07:34:46.184Z,100028.34
2019-03-18T07:37:17.501Z,100038.40
2019-03-18T07:39:48.748Z,100036.13
2019-03-18T07:42:20.147Z,100032.83
2019-03-18T07:44:51.586Z,100035.23
2019-03-18T07:47:22.985Z,100033.39
2019-03-18T07:49:54.435Z,100046.27
2019-03-18T07:52:25.831Z,100034.95
2019-03-18T07:54:57.201Z,100033.84
2019-03-18T07:57:28.541Z,100029.67
2019-03-18T07:59:59.921Z,100036.08
2019-03-18T08:02:31.207Z,100038.18
2019-03-18T08:05:02.627Z,100042.83
2019-03-18T08:07:33.951Z,100047.67
2019-03-18T08:10:07.934Z,100044.48
2019-03-18T08:12:39.311Z,100040.35
2019-03-18T08:15:11.764Z,100042.11
2019-03-18T08:17:43.076Z,100042.31
2019-03-18T08:20:14.404Z,100044.18
2019-03-18T08:22:45.710Z,100051.47
2019-03-18T08:25:17.056Z,100045.67
2019-03-18T08:27:48.403Z,100044.13
2019-03-18T08:30:20.286Z,100048.62
2019-03-18T08:32:51.702Z,100059.92
2019-03-18T08:35:23.062Z,100049.66
2019-03-18T08:37:54.950Z,100049.81
2019-03-18T08:40:26.481Z,100054.20
2019-03-18T08:42:57.920Z,100058.93
2019-03-18T08:45:29.389Z,100052.15
2019-03-18T08:48:00.717Z,100045.62
2019-03-18T08:50:32.116Z,100060.79
2019-03-18T08:53:03.453Z,100061.25
2019-03-18T08:55:34.779Z,100070.87
2019-03-18T08:58:06.109Z,100065.05
2019-03-18T09:00:37.583Z,100063.95
2019-03-18T09:03:09.033Z,100066.08
2019-03-18T09:05:40.378Z,100071.19
2019-03-18T09:08:12.168Z,100067.61
2019-03-18T09:10:43.597Z,100078.47
2019-03-18T09:13:14.966Z,100076.66
2019-03-18T09:15:46.370Z,100084.23
2019-03-18T09:18:17.687Z,100081.11
2019-03-18T09:20:49.021Z,100074.80
2019-03-18T09:23:20.292Z,100071.87
2019-03-18T09:25:51.612Z,100070.52
2019-03-18T09:28:23.005Z,100068.08
2019-03-18T09:30:54.356Z,100074.37
2019-03-18T09:33:25.705Z,100068.53
2019-03-18T09:35:56.971Z,100079.70
2019-03-18T09:38:28.303Z,100082.86
2019-03-18T09:40:59.634Z,100071.77
2019-03-18T09:43:32.082Z,100080.35
2019-03-18T09:46:03.366Z,100078.84
2019-03-18T09:48:34.733Z,100075.64
2019-03-18T09:51:05.985Z,100079.53
2019-03-18T09:53:37.701Z,100080.27
2019-03-18T09:56:09.420Z,100073.44
2019-03-18T09:58:40.823Z,100080.30
2019-03-18T10:01:12.166Z,100077.77
2019-03-18T10:03:44.654Z,100088.98
2019-03-18T10:06:15.843Z,100087.95
2019-03-18T10:08:47.199Z,100086.83
2019-03-18T10:11:18.604Z,100088.88
2019-03-18T10:13:49.980Z,100078.85
2019-03-18T10:16:21.319Z,100065.51
2019-03-18T10:18:52.669Z,100067.81
2019-03-18T10:21:23.875Z,100068.41
2019-03-18T10:23:55.272Z,100068.08
2019-03-18T10:26:26.609Z,100065.23
2019-03-18T10:28:57.984Z,100066.02
2019-03-18T10:31:29.295Z,100065.57
2019-03-18T10:34:00.628Z,100061.34
2019-03-18T10:36:31.973Z,100064.88
2019-03-18T10:39:04.133Z,100070.07
2019-03-18T10:41:35.474Z,100070.07
2019-03-18T10:44:06.967Z,100065.72
2019-03-18T10:46:38.266Z,100073.08
2019-03-18T10:49:09.611Z,100068.42
2019-03-18T10:51:40.983Z,100064.51
2019-03-18T10:54:12.296Z,100056.59
2019-03-18T10:56:43.571Z,100057.22
2019-03-18T10:59:14.890Z,100056.27
2019-03-18T11:01:47.333Z,100056.38
2019-03-18T11:04:19.688Z,100061.40
2019-03-18T11:06:50.984Z,100064.81
2019-03-18T11:09:23.317Z,100067.03
2019-03-18T11:11:54.724Z,100068.05
2019-03-18T11:14:26.080Z,100068.75
2019-03-18T11:16:57.521Z,100069.70
2019-03-18T11:19:28.919Z,100065.73
2019-03-18T11:22:00.290Z,100059.55
2019-03-18T11:24:31.620Z,100056.40
2019-03-18T11:27:03.059Z,100062.81
2019-03-18T11:29:34.353Z,100058.77
2019-03-18T11:32:05.690Z,100050.30
2019-03-18T11:34:36.936Z,100062.38
2019-03-18T11:37:08.329Z,100055.81
2019-03-18T11:39:39.585Z,100060.86
2019-03-18T11:42:11.005Z,100054.89
2019-03-18T11:44:42.275Z,100050.56
2019-03-18T11:47:13.667Z,100053.94
2019-03-18T11:49:45.126Z,100049.14
2019-03-18T11:52:17.696Z,100052.45
2019-03-18T11:54:48.975Z,100049.86
2019-03-18T11:57:20.548Z,100050.00
2019-03-18T11:59:51.743Z,100051.41
2019-03-18T12:02:27.576Z,100052.22
2019-03-18T12:04:57.604Z,100039.09
2019-03-18T12:07:28.994Z,100043.19
2019-03-18T12:10:00.387Z,100042.03
2019-03-18T12:12:31.712Z,100049.00
2019-03-18T12:15:02.987Z,100042.17
2019-03-18T12:17:35.454Z,100042.98
2019-03-18T12:20:09.735Z,100041.83
2019-03-18T12:22:41.164Z,100046.48
2019-03-18T12:25:13.525Z,100040.17
2019-03-18T12:27:44.857Z,100036.77
2019-03-18T12:30:26.657Z,100050.37
2019-03-18T12:32:58.067Z,100050.09
2019-03-18T12:35:29.329Z,100044.83
2019-03-18T12:38:00.590Z,100043.77
2019-03-18T12:40:31.973Z,100042.55
2019-03-18T12:43:03.239Z,100036.87
2019-03-18T12:45:34.546Z,100041.39
2019-03-18T12:48:05.985Z,100034.13
2019-03-18T12:50:54.468Z,100036.58
2019-03-18T12:53:10.277Z,100033.55
2019-03-18T12:55:41.660Z,100037.27
2019-03-18T12:58:12.958Z,100034.52
2019-03-18T13:00:44.200Z,100034.98
2019-03-18T13:03:15.568Z,100037.85
2019-03-18T13:05:46.874Z,100032.20
2019-03-18T13:08:18.162Z,100032.53
2019-03-18T13:10:49.532Z,100026.28
2019-03-18T13:13:20.786Z,100027.81
2019-03-18T13:15:52.034Z,100032.06
2019-03-18T13:18:23.354Z,100027.13
2019-03-18T13:21:07.371Z,100025.16
2019-03-18T13:23:28.673Z,100015.02
2019-03-18T13:26:00.972Z,100015.00
2019-03-18T13:28:32.302Z,100015.44
2019-03-18T13:31:03.668Z,100019.72
2019-03-18T13:33:35.006Z,100012.70
2019-03-18T13:36:06.305Z,100012.34
2019-03-18T13:38:37.526Z,100013.18
2019-03-18T13:41:08.822Z,100020.67
2019-03-18T13:43:40.091Z,100013.39
2019-03-18T13:46:12.336Z,100011.77
2019-03-18T13:48:43.740Z,100002.83
2019-03-18T13:51:20.925Z,100001.27
2019-03-18T13:53:48.119Z,100011.80
2019-03-18T13:56:19.437Z,100000.69
2019-03-18T13:58:50.873Z,100006.23
2019-03-18T14:01:22.214Z,100008.05
2019-03-18T14:03:53.610Z,100004.13
2019-03-18T14:06:24.990Z,99997.81
2019-03-18T14:08:56.323Z,100003.21
2019-03-18T14:11:27.663Z,100002.17
2019-03-18T14:13:58.852Z,100002.50
2019-03-18T14:16:30.096Z,100003.39
2019-03-18T14:19:01.854Z,99999.25
2019-03-18T14:21:33.707Z,100001.79
2019-03-18T14:24:04.433Z,99999.95
2019-03-18T14:26:35.560Z,100004.08
2019-03-18T14:29:06.918Z,99999.33
2019-03-18T14:31:38.173Z,100004.95
2019-03-18T14:34:10.659Z,100011.02
2019-03-18T14:36:41.980Z,100005.94
2019-03-18T14:39:13.317Z,100006.18
2019-03-18T14:41:44.650Z,100001.92
2019-03-18T14:44:16.023Z,100008.66
2019-03-18T14:46:47.290Z,99997.02
2019-03-18T14:49:18.756Z,100010.13
2019-03-18T14:51:50.123Z,100000.77
2019-03-18T14:54:21.503Z,100003.86
2019-03-18T14:56:54.015Z,100011.28
2019-03-18T14:59:25.370Z,100011.17
2019-03-18T15:01:56.657Z,100015.02
2019-03-18T15:04:27.996Z,100014.20
2019-03-18T15:06:59.248Z,100014.83
2019-03-18T15:09:30.726Z,100023.17
2019-03-18T15:12:02.025Z,100024.20
2019-03-18T15:14:33.703Z,100021.62
2019-03-18T15:17:04.954Z,100018.84
2019-03-18T15:19:36.359Z,100025.16
2019-03-18T15:22:07.692Z,100027.70
2019-03-18T15:24:39.009Z,100025.48
2019-03-18T15:27:10.313Z,100029.70
2019-03-18T15:29:42.957Z,100032.58
2019-03-18T15:32:15.500Z,100037.27
2019-03-18T15:34:46.874Z,100042.20
2019-03-18T15:37:18.339Z,100034.70
2019-03-18T15:39:49.687Z,100042.56
2019-03-18T15:42:21.056Z,100038.16
2019-03-18T15:44:52.340Z,100041.25
2019-03-18T15:47:23.661Z,100040.27
2019-03-18T15:49:54.999Z,100048.13
2019-03-18T15:52:26.235Z,100048.16
2019-03-18T15:54:57.541Z,100044.57
2019-03-18T15:57:30.042Z,100052.40
2019-03-18T16:00:01.448Z,100053.86
2019-03-18T16:02:32.785Z,100057.78
2019-03-18T16:05:05.179Z,100054.78
2019-03-18T16:07:36.496Z,100058.20
2019-03-18T16:10:20.715Z,100065.10
2019-03-18T16:12:52.079Z,100062.61
2019-03-18T16:15:23.385Z,100068.48
2019-03-18T16:17:54.779Z,100071.22
2019-03-18T16:20:27.101Z,100073.36
2019-03-18T16:22:58.459Z,100071.83
2019-03-18T16:25:29.870Z,100068.72
2019-03-18T16:28:01.177Z,100079.16
2019-03-18T16:30:32.601Z,100078.22
2019-03-18T16:33:04.041Z,100077.91
2019-03-18T16:35:35.323Z,100081.53
2019-03-18T16:38:06.634Z,100090.92
2019-03-18T16:40:38.079Z,100086.70
2019-03-18T16:43:10.714Z,100091.00
2019-03-18T16:45:42.075Z,100090.78
2019-03-18T16:48:13.331Z,100095.34
2019-03-18T16:50:44.709Z,100095.34
2019-03-18T16:53:16.043Z,100113.81
2019-03-18T16:55:48.691Z,100113.81
2019-03-18T16:58:20.200Z,100107.77
2019-03-18T17:00:51.484Z,100103.81
2019-03-18T17:03:22.904Z,100107.52
2019-03-18T17:05:54.269Z,100111.55
2019-03-18T17:08:25.543Z,100114.38
2019-03-18T17:10:58.076Z,100108.86
2019-03-18T17:13:29.499Z,100113.25
2019-03-18T17:16:00.828Z,100110.89
2019-03-18T17:18:32.168Z,100118.27
2019-03-18T17:21:03.441Z,100126.80
2019-03-18T17:23:34.739Z,100120.92
2019-03-18T17:26:06.920Z,100125.32
2019-03-18T17:28:38.262Z,100125.49
2019-03-18T17:31:09.678Z,100126.61
2019-03-18T17:33:41.053Z,100130.30
2019-03-18T17:36:12.300Z,100126.30
2019-03-18T17:38:43.636Z,100128.81
2019-03-18T17:41:14.946Z,100135.03
2019-03-18T17:43:46.340Z,100132.83
2019-03-18T17:46:17.684Z,100133.00
2019-03-18T17:48:49.076Z,100141.71
2019-03-18T17:51:21.986Z,100140.56
2019-03-18T17:53:54.891Z,100146.58
2019-03-18T17:56:30.437Z,100148.73
2019-03-18T17:59:01.670Z,100143.73
2019-03-18T18:01:33.021Z,100152.41
2019-03-18T18:04:04.486Z,100150.73
2019-03-18T18:06:35.939Z,100149.05
2019-03-18T18:09:07.417Z,100153.75
2019-03-18T18:11:38.679Z,100159.75
2019-03-18T18:14:10.113Z,100152.37
2019-03-18T18:16:41.528Z,100158.40
2019-03-18T18:19:12.795Z,100164.23
2019-03-18T18:21:44.089Z,100172.95
2019-03-18T18:24:15.411Z,100179.25
2019-03-18T18:26:46.776Z,100182.45
2019-03-18T18:29:18.222Z,100186.41
2019-03-18T18:31:50.636Z,100193.13
2019-03-18T18:34:21.973Z,100194.08
2019-03-18T18:36:53.653Z,100196.95
2019-03-18T18:39:25.057Z,100198.39
2019-03-18T18:41:56.323Z,100205.95
2019-03-18T18:44:27.722Z,100201.64
2019-03-18T18:46:59.069Z,100205.27
2019-03-18T18:49:30.488Z,100198.97
2019-03-18T18:52:01.840Z,100201.81
2019-03-18T18:54:33.279Z,100203.63
2019-03-18T18:57:05.734Z,100198.64
2019-03-18T18:59:37.705Z,100198.98
2019-03-18T19:02:08.443Z,100199.66
2019-03-18T19:04:40.090Z,100202.54
2019-03-18T19:07:11.469Z,100200.75
2019-03-18T19:09:42.834Z,100198.72
2019-03-18T19:12:14.234Z,100207.95
2019-03-18T19:14:45.502Z,100201.08
2019-03-18T19:17:16.819Z,100203.45
2019-03-18T19:19:48.231Z,100204.39
2019-03-18T19:22:19.658Z,100206.30
2019-03-18T19:24:50.965Z,100200.30
2019-03-18T19:27:22.260Z,100204.69
2019-03-18T19:29:53.656Z,100206.42
2019-03-18T19:32:24.992Z,100202.73
2019-03-18T19:34:56.246Z,100205.55
2019-03-18T19:37:27.625Z,100206.30
2019-03-18T19:39:58.995Z,100214.00
2019-03-18T19:42:30.322Z,100212.53
2019-03-18T19:45:01.806Z,100209.56
2019-03-18T19:47:34.961Z,100205.70
2019-03-18T19:50:09.431Z,100202.87
2019-03-18T19:52:40.769Z,100204.68
2019-03-18T19:55:12.175Z,100209.66
2019-03-18T19:57:43.574Z,100209.97
2019-03-18T20:00:22.644Z,100197.50
2019-03-18T20:02:54.038Z,100204.25
2019-03-18T20:05:26.563Z,100207.72
2019-03-18T20:07:58.475Z,100211.53
2019-03-18T20:10:31.085Z,100212.00
2019-03-18T20:13:04.668Z,100209.97
2019-03-18T20:15:35.477Z,100206.92
2019-03-18T20:18:06.854Z,100210.34
2019-03-18T20:20:38.108Z,100215.34
2019-03-18T20:23:09.445Z,100214.94
2019-03-18T20:25:40.711Z,100218.54
2019-03-18T20:28:12.038Z,100214.91
2019-03-18T20:30:43.320Z,100222.48
2019-03-18T20:33:14.652Z,100217.77
2019-03-18T20:35:45.859Z,100222.20
2019-03-18T20:38:17.262Z,100223.31
2019-03-18T20:40:48.528Z,100218.77
2019-03-18T20:43:19.948Z,100210.50
2019-03-18T20:45:51.289Z,100212.19
2019-03-18T20:48:22.587Z,100212.73
2019-03-18T20:50:56.568Z,100213.27
2019-03-18T20:53:26.874Z,100215.60
2019-03-18T20:55:58.296Z,100215.99
2019-03-18T20:58:29.498Z,100215.16
2019-03-18T21:01:00.772Z,100217.23
2019-03-18T21:03:32.147Z,100224.73
2019-03-18T21:06:04.634Z,100216.34
2019-03-18T21:08:37.068Z,100220.56
2019-03-18T21:11:08.447Z,100221.53
2019-03-18T21:13:40.218Z,100219.41
2019-03-18T21:16:11.552Z,100218.38
2019-03-18T21:18:44.029Z,100225.11
2019-03-18T21:21:16.927Z,100229.30
2019-03-18T21:23:48.317Z,100232.17
2019-03-18T21:26:19.632Z,100234.45
2019-03-18T21:28:51.064Z,100234.21
2019-03-18T21:31:22.383Z,100242.49
2019-03-18T21:33:53.715Z,100250.16
2019-03-18T21:36:37.078Z,100247.70
2019-03-18T21:38:57.976Z,100239.97
2019-03-18T21:41:29.375Z,100244.88
2019-03-18T21:44:00.603Z,100242.25
2019-03-18T21:46:31.975Z,100242.61
2019-03-18T21:49:03.399Z,100243.88
2019-03-18T21:51:35.655Z,100242.69
2019-03-18T21:54:07.003Z,100248.02
2019-03-18T21:56:38.550Z,100251.41
2019-03-18T21:59:09.790Z,100248.97
2019-03-18T22:01:41.179Z,100248.66
2019-03-18T22:04:12.571Z,100252.30
2019-03-18T22:06:43.918Z,100256.02
2019-03-18T22:09:15.271Z,100249.72
2019-03-18T22:11:46.641Z,100249.09
2019-03-18T22:14:17.969Z,100253.30
2019-03-18T22:16:50.577Z,100251.27
2019-03-18T22:19:21.906Z,100253.78
2019-03-18T22:21:53.616Z,100260.06
2019-03-18T22:24:24.902Z,100255.51
2019-03-18T22:26:56.311Z,100257.25
2019-03-18T22:29:28.813Z,100252.78
2019-03-18T22:32:00.166Z,100253.56
2019-03-18T22:34:31.470Z,100249.28
2019-03-18T22:37:02.795Z,100248.28
2019-03-18T22:39:34.165Z,100252.63
2019-03-18T22:42:05.513Z,100259.27
2019-03-18T22:44:36.920Z,100263.73
2019-03-18T22:47:08.256Z,100261.39
2019-03-18T22:49:39.577Z,100256.17
2019-03-18T22:52:11.348Z,100251.36
2019-03-18T22:54:42.908Z,100252.44
2019-03-18T22:57:14.236Z,100247.28
2019-03-18T22:59:45.561Z,100259.61
2019-03-18T23:02:16.934Z,100257.00
2019-03-18T23:04:48.357Z,100247.45
2019-03-18T23:07:19.737Z,100249.59
2019-03-18T23:09:51.150Z,100250.48
2019-03-18T23:12:22.532Z,100245.78
2019-03-18T23:14:55.170Z,100247.45
2019-03-18T23:17:26.552Z,100247.12
2019-03-18T23:19:57.891Z,100243.27
2019-03-18T23:22:29.277Z,100249.39
2019-03-18T23:25:07.172Z,100246.16
2019-03-18T23:27:33.822Z,100245.78
2019-03-18T23:30:08.319Z,100247.31
2019-03-18T23:32:39.722Z,100248.83
2019-03-18T23:35:11.113Z,100246.20
2019-03-18T23:37:42.537Z,100248.99
2019-03-18T23:40:14.518Z,100253.14
2019-03-18T23:42:47.034Z,100244.11
2019-03-18T23:45:18.421Z,100251.22
2019-03-18T23:47:49.766Z,100245.28
2019-03-18T23:50:21.146Z,100245.09
2019-03-18T23:52:52.469Z,100237.34
2019-03-18T23:55:23.954Z,100232.66
2019-03-18T23:57:55.303Z,100233.05
